createdAt,value
2023-05-28T00:00:07.129Z,8.80
2023-05-28T00:02:36.208Z,8.80
2023-05-28T00:05:03.870Z,8.70
2023-05-28T00:07:31.784Z,8.80
2023-05-28T00:09:59.338Z,8.60
2023-05-28T00:12:26.231Z,8.50
2023-05-28T00:14:53.323Z,8.60
2023-05-28T00:17:20.137Z,8.50
2023-05-28T00:19:46.874Z,8.70
2023-05-28T00:22:14.030Z,8.40
2023-05-28T00:27:08.953Z,8.40
2023-05-28T00:29:35.756Z,8.30
2023-05-28T00:32:02.617Z,8.40
2023-05-28T00:34:29.538Z,8.40
2023-05-28T00:36:56.372Z,8.10
2023-05-28T00:39:23.173Z,8.10
2023-05-28T00:42:01.814Z,8.10
2023-05-28T00:44:28.783Z,8.30
2023-05-28T00:46:56.808Z,8.20
2023-05-28T00:49:24.486Z,8.30
2023-05-28T00:51:51.216Z,8.00
2023-05-28T00:54:18.432Z,8.00
2023-05-28T00:56:47.352Z,7.90
2023-05-28T00:59:14.233Z,8.00
2023-05-28T01:01:41.649Z,7.80
2023-05-28T01:04:08.511Z,8.00
2023-05-28T01:06:39.027Z,7.90
2023-05-28T01:09:06.992Z,7.90
2023-05-28T01:11:36.273Z,7.60
2023-05-28T01:14:04.534Z,7.60
2023-05-28T01:16:31.277Z,7.80
2023-05-28T01:18:58.994Z,7.50
2023-05-28T01:21:29.216Z,7.60
2023-05-28T01:23:58.649Z,7.90
2023-05-28T01:26:26.871Z,7.70
2023-05-28T01:28:53.665Z,7.80
2023-05-28T01:31:20.531Z,7.80
2023-05-28T01:33:47.837Z,7.60
2023-05-28T01:36:22.875Z,7.60
2023-05-28T01:38:51.086Z,7.50
2023-05-28T01:41:18.192Z,7.40
2023-05-28T01:43:45.808Z,7.70
2023-05-28T01:46:13.126Z,7.40
2023-05-28T01:48:40.783Z,7.30
2023-05-28T01:51:07.679Z,7.30
2023-05-28T01:53:34.441Z,7.50
2023-05-28T01:56:02.672Z,7.50
2023-05-28T01:58:30.430Z,7.30
2023-05-28T02:01:17.151Z,7.40
2023-05-28T02:03:43.970Z,7.30
2023-05-28T02:06:11.916Z,7.20
2023-05-28T02:08:38.704Z,7.30
2023-05-28T02:11:05.546Z,7.30
2023-05-28T02:13:32.812Z,7.20
2023-05-28T02:15:59.536Z,7.10
2023-05-28T02:18:26.322Z,7.00
2023-05-28T02:20:53.168Z,7.00
2023-05-28T02:23:19.893Z,7.50
2023-05-28T02:25:46.617Z,7.00
2023-05-28T02:28:13.330Z,7.00
2023-05-28T02:30:40.146Z,7.10
2023-05-28T02:35:34.421Z,7.50
2023-05-28T02:38:01.159Z,7.10
2023-05-28T02:40:27.924Z,6.90
2023-05-28T02:42:54.646Z,9.00
2023-05-28T02:45:21.372Z,7.00
2023-05-28T02:50:15.576Z,6.90
2023-05-28T02:55:09.628Z,6.90
2023-05-28T02:57:36.660Z,6.90
2023-05-28T03:00:03.911Z,6.90
2023-05-28T03:02:30.678Z,7.00
2023-05-28T03:04:58.007Z,6.90
2023-05-28T03:07:24.764Z,7.00
2023-05-28T03:09:51.517Z,6.70
2023-05-28T03:12:18.248Z,6.70
2023-05-28T03:14:45.041Z,6.70
2023-05-28T03:17:11.861Z,6.80
2023-05-28T03:19:38.645Z,6.80
2023-05-28T03:22:05.499Z,6.60
2023-05-28T03:24:32.254Z,6.70
2023-05-28T03:27:00.855Z,6.70
2023-05-28T03:29:27.538Z,7.40
2023-05-28T03:31:54.380Z,7.00
2023-05-28T03:34:21.682Z,6.70
2023-05-28T03:36:48.443Z,6.70
2023-05-28T03:41:45.216Z,6.80
2023-05-28T03:44:11.924Z,7.20
2023-05-28T03:46:40.000Z,6.80
2023-05-28T03:49:06.843Z,6.70
2023-05-28T03:51:34.079Z,6.80
2023-05-28T03:54:01.850Z,6.70
2023-05-28T03:56:29.024Z,6.70
2023-05-28T03:58:55.688Z,6.70
2023-05-28T04:01:22.446Z,6.70
2023-05-28T04:03:49.340Z,6.80
2023-05-28T04:06:16.252Z,6.90
2023-05-28T04:08:43.310Z,6.90
2023-05-28T04:11:09.986Z,7.20
2023-05-28T04:13:36.711Z,7.00
2023-05-28T04:16:03.770Z,7.00
2023-05-28T04:18:30.642Z,7.40
2023-05-28T04:20:57.765Z,7.00
2023-05-28T04:23:24.552Z,7.30
2023-05-28T04:25:51.659Z,7.10
2023-05-28T04:28:18.671Z,7.20
2023-05-28T04:30:45.391Z,7.20
2023-05-28T04:33:12.181Z,7.20
2023-05-28T04:35:38.919Z,7.20
2023-05-28T04:38:05.620Z,7.30
2023-05-28T04:45:27.604Z,7.60
2023-05-28T04:50:23.225Z,7.70
2023-05-28T04:52:49.937Z,7.70
2023-05-28T04:55:17.671Z,7.80
2023-05-28T04:57:44.372Z,7.90
2023-05-28T05:00:13.557Z,7.90
2023-05-28T05:02:42.520Z,8.00
2023-05-28T05:05:09.757Z,8.20
2023-05-28T05:07:37.778Z,8.30
2023-05-28T05:10:08.076Z,8.30
2023-05-28T05:12:35.382Z,8.50
2023-05-28T05:15:02.348Z,11.50
2023-05-28T05:17:29.228Z,8.80
2023-05-28T05:19:56.278Z,8.90
2023-05-28T05:22:23.245Z,9.00
2023-05-28T05:24:50.078Z,9.20
2023-05-28T05:27:17.293Z,9.40
2023-05-28T05:29:44.048Z,9.50
2023-05-28T05:32:11.485Z,9.70
2023-05-28T05:34:38.196Z,9.90
2023-05-28T05:37:05.352Z,10.30
2023-05-28T05:39:32.046Z,10.30
2023-05-28T05:41:59.121Z,11.30
2023-05-28T05:44:26.225Z,12.50
2023-05-28T05:46:52.970Z,14.90
2023-05-28T05:49:20.124Z,15.70
2023-05-28T05:51:46.865Z,15.80
2023-05-28T05:54:13.628Z,16.60
2023-05-28T05:56:40.369Z,17.30
2023-05-28T05:59:07.685Z,17.90
2023-05-28T06:01:34.466Z,18.40
2023-05-28T06:04:01.072Z,18.90
2023-05-28T06:06:27.973Z,19.30
2023-05-28T06:08:54.725Z,19.70
2023-05-28T06:11:23.670Z,20.00
2023-05-28T06:13:51.658Z,20.20
2023-05-28T06:16:19.016Z,20.20
2023-05-28T06:18:45.817Z,20.20
2023-05-28T06:21:12.904Z,20.00
2023-05-28T06:23:39.718Z,19.70
2023-05-28T06:26:06.637Z,19.40
2023-05-28T06:28:33.397Z,19.10
2023-05-28T06:31:00.441Z,18.80
2023-05-28T06:33:27.237Z,18.60
2023-05-28T06:35:54.435Z,18.50
2023-05-28T06:38:22.238Z,18.30
2023-05-28T06:40:49.073Z,18.20
2023-05-28T06:43:15.636Z,18.10
2023-05-28T06:45:43.753Z,18.20
2023-05-28T06:48:11.312Z,17.90
2023-05-28T06:50:38.024Z,17.80
2023-05-28T06:53:04.723Z,17.70
2023-05-28T06:55:31.428Z,17.60
2023-05-28T06:57:58.155Z,17.60
2023-05-28T07:00:25.137Z,17.80
2023-05-28T07:02:51.886Z,17.90
2023-05-28T07:05:18.700Z,18.00
2023-05-28T07:07:45.635Z,18.30
2023-05-28T07:10:14.837Z,18.40
2023-05-28T07:12:43.072Z,18.60
2023-05-28T07:15:11.322Z,18.70
2023-05-28T07:17:38.188Z,18.70
2023-05-28T07:20:06.888Z,18.80
2023-05-28T07:22:33.847Z,18.70
2023-05-28T07:25:00.591Z,18.70
2023-05-28T07:27:27.435Z,18.80
2023-05-28T07:29:54.293Z,19.00
2023-05-28T07:32:21.441Z,19.10
2023-05-28T07:34:48.233Z,19.10
2023-05-28T07:37:14.974Z,19.20
2023-05-28T07:39:41.689Z,19.30
2023-05-28T07:42:08.391Z,19.40
2023-05-28T07:44:35.207Z,19.60
2023-05-28T07:47:01.852Z,19.70
2023-05-28T07:49:28.457Z,19.70
2023-05-28T07:51:55.082Z,19.70
2023-05-28T07:54:21.709Z,19.80
2023-05-28T07:56:49.548Z,19.80
2023-05-28T07:59:16.484Z,19.90
2023-05-28T08:01:43.256Z,20.10
2023-05-28T08:04:10.180Z,20.30
2023-05-28T08:06:36.956Z,20.40
2023-05-28T08:09:04.097Z,20.60
2023-05-28T08:11:30.887Z,20.70
2023-05-28T08:13:57.578Z,20.70
2023-05-28T08:16:24.986Z,21.00
2023-05-28T08:18:51.782Z,21.30
2023-05-28T08:21:18.480Z,21.50
2023-05-28T08:23:45.490Z,21.80
2023-05-28T08:26:12.343Z,22.10
2023-05-28T08:28:39.062Z,22.40
2023-05-28T08:31:05.968Z,22.60
2023-05-28T08:33:32.502Z,21.10
2023-05-28T08:36:01.189Z,22.50
2023-05-28T08:38:30.344Z,22.70
2023-05-28T08:40:57.778Z,23.00
2023-05-28T08:43:24.681Z,23.20
2023-05-28T08:45:53.783Z,23.30
2023-05-28T08:48:23.832Z,23.50
2023-05-28T08:50:52.451Z,23.50
2023-05-28T08:53:23.285Z,23.50
2023-05-28T08:55:50.609Z,23.60
2023-05-28T08:58:18.894Z,23.60
2023-05-28T09:00:46.596Z,23.60
2023-05-28T09:03:13.547Z,23.70
2023-05-28T09:05:40.780Z,23.70
2023-05-28T09:08:11.480Z,23.80
2023-05-28T09:10:39.004Z,24.00
2023-05-28T09:13:06.240Z,24.20
2023-05-28T09:15:37.064Z,24.50
2023-05-28T09:18:05.846Z,24.50
2023-05-28T09:20:33.163Z,24.10
2023-05-28T09:23:01.753Z,24.10
2023-05-28T09:25:29.760Z,24.40
2023-05-28T09:27:59.507Z,25.00
2023-05-28T09:30:26.276Z,25.60
2023-05-28T09:33:10.525Z,26.00
2023-05-28T09:35:37.700Z,26.50
2023-05-28T09:38:05.897Z,27.30
2023-05-28T09:40:32.802Z,28.00
2023-05-28T09:42:59.542Z,28.80
2023-05-28T09:45:28.295Z,29.60
2023-05-28T09:47:55.286Z,30.30
2023-05-28T09:50:22.203Z,30.30
2023-05-28T09:52:49.152Z,30.40
2023-05-28T09:55:18.732Z,30.50
2023-05-28T09:57:51.328Z,30.80
2023-05-28T10:00:24.929Z,30.80
2023-05-28T10:03:11.590Z,31.30
2023-05-28T10:05:42.127Z,31.80
2023-05-28T10:08:12.360Z,31.90
2023-05-28T10:10:41.728Z,32.20
2023-05-28T10:13:10.910Z,32.30
2023-05-28T10:15:37.938Z,31.90
2023-05-28T10:18:06.384Z,31.40
2023-05-28T10:20:33.733Z,31.30
2023-05-28T10:23:00.809Z,31.40
2023-05-28T10:25:27.616Z,32.10
2023-05-28T10:28:01.519Z,32.70
2023-05-28T10:30:33.684Z,33.10
2023-05-28T10:33:00.907Z,33.30
2023-05-28T10:35:27.995Z,33.30
2023-05-28T10:38:11.853Z,33.50
2023-05-28T10:40:40.770Z,33.50
2023-05-28T10:43:43.823Z,33.50
2023-05-28T10:46:12.129Z,33.80
2023-05-28T10:48:41.308Z,33.40
2023-05-28T10:51:08.620Z,33.60
2023-05-28T10:53:35.468Z,34.20
2023-05-28T10:56:03.077Z,34.40
2023-05-28T10:58:39.167Z,34.30
2023-05-28T11:01:20.865Z,34.70
2023-05-28T11:03:55.825Z,35.00
2023-05-28T11:06:27.043Z,34.80
2023-05-28T11:08:53.829Z,34.10
2023-05-28T11:11:20.590Z,33.80
2023-05-28T11:13:49.434Z,34.30
2023-05-28T11:16:17.936Z,35.10
2023-05-28T11:19:05.991Z,35.60
2023-05-28T11:21:34.050Z,36.10
2023-05-28T11:24:03.665Z,36.60
2023-05-28T11:26:31.380Z,36.90
2023-05-28T11:28:58.194Z,37.10
2023-05-28T11:31:25.286Z,36.80
2023-05-28T11:33:52.193Z,36.90
2023-05-28T11:36:21.319Z,37.00
2023-05-28T11:38:48.719Z,37.10
2023-05-28T11:41:15.619Z,37.40
2023-05-28T11:43:42.315Z,37.70
2023-05-28T11:46:09.159Z,37.90
2023-05-28T11:48:39.151Z,37.40
2023-05-28T11:51:06.601Z,37.20
2023-05-28T11:53:48.987Z,37.20
2023-05-28T11:56:15.883Z,37.30
2023-05-28T11:58:49.329Z,37.50
2023-05-28T12:01:16.841Z,37.40
2023-05-28T12:03:43.925Z,37.50
2023-05-28T12:06:12.581Z,37.70
2023-05-28T12:08:42.415Z,37.60
2023-05-28T12:11:10.360Z,37.90
2023-05-28T12:13:39.037Z,38.40
2023-05-28T12:16:11.006Z,38.80
2023-05-28T12:18:43.301Z,38.30
2023-05-28T12:21:12.940Z,37.90
2023-05-28T12:23:39.890Z,37.40
2023-05-28T12:26:12.488Z,37.40
2023-05-28T12:28:41.683Z,37.70
2023-05-28T12:31:09.672Z,38.30
2023-05-28T12:33:36.598Z,38.80
2023-05-28T12:36:03.654Z,38.80
2023-05-28T12:38:30.389Z,38.80
2023-05-28T12:40:57.804Z,38.90
2023-05-28T12:43:24.707Z,39.40
2023-05-28T12:45:51.752Z,39.90
2023-05-28T12:48:18.542Z,40.10
2023-05-28T12:50:45.305Z,40.30
2023-05-28T12:53:12.041Z,40.20
2023-05-28T12:55:38.953Z,40.10
2023-05-28T12:58:05.920Z,40.00
2023-05-28T13:00:32.546Z,39.70
2023-05-28T13:03:00.736Z,39.70
2023-05-28T13:05:27.686Z,40.40
2023-05-28T13:07:54.406Z,41.10
2023-05-28T13:10:21.148Z,41.10
2023-05-28T13:12:47.971Z,40.80
2023-05-28T13:15:14.714Z,41.10
2023-05-28T13:17:41.650Z,41.30
2023-05-28T13:20:11.450Z,41.40
2023-05-28T13:22:38.770Z,41.90
2023-05-28T13:25:05.836Z,42.00
2023-05-28T13:27:32.654Z,41.40
2023-05-28T13:29:59.754Z,41.20
2023-05-28T13:32:26.935Z,41.30
2023-05-28T13:34:53.808Z,41.50
2023-05-28T13:37:20.982Z,41.80
2023-05-28T13:39:48.206Z,42.10
2023-05-28T13:42:20.538Z,41.70
2023-05-28T13:44:49.097Z,41.40
2023-05-28T13:47:17.195Z,41.30
2023-05-28T13:49:44.187Z,41.30
2023-05-28T13:52:11.206Z,41.50
2023-05-28T13:54:37.960Z,41.80
2023-05-28T13:57:07.015Z,42.50
2023-05-28T13:59:33.777Z,42.50
2023-05-28T14:02:00.413Z,42.40
2023-05-28T14:04:27.534Z,42.30
2023-05-28T14:06:54.394Z,41.50
2023-05-28T14:09:21.130Z,41.50
2023-05-28T14:12:16.763Z,41.50
2023-05-28T14:14:34.610Z,41.50
2023-05-28T14:17:01.468Z,42.00
2023-05-28T14:19:28.392Z,42.30
2023-05-28T14:21:55.146Z,42.30
2023-05-28T14:24:21.903Z,42.10
2023-05-28T14:26:48.670Z,42.20
2023-05-28T14:29:15.415Z,42.20
2023-05-28T14:31:42.194Z,41.90
2023-05-28T14:34:08.863Z,41.60
2023-05-28T14:36:36.406Z,41.00
2023-05-28T14:39:03.256Z,41.00
2023-05-28T14:41:29.935Z,41.40
2023-05-28T14:43:56.634Z,41.60
2023-05-28T14:46:23.439Z,41.40
2023-05-28T14:48:50.144Z,40.80
2023-05-28T14:51:17.030Z,40.40
2023-05-28T14:53:43.762Z,40.30
2023-05-28T14:56:10.413Z,40.20
2023-05-28T14:58:37.229Z,40.40
2023-05-28T15:01:04.344Z,40.70
2023-05-28T15:03:31.956Z,40.90
2023-05-28T15:05:59.588Z,41.30
2023-05-28T15:08:26.694Z,41.60
2023-05-28T15:10:53.449Z,41.90
2023-05-28T15:13:20.585Z,42.20
2023-05-28T15:15:47.350Z,42.10
2023-05-28T15:18:14.326Z,41.70
2023-05-28T15:20:41.105Z,41.40
2023-05-28T15:23:08.172Z,41.30
2023-05-28T15:25:35.371Z,41.10
2023-05-28T15:28:02.643Z,40.90
2023-05-28T15:30:29.588Z,40.80
2023-05-28T15:32:59.268Z,39.90
2023-05-28T15:35:28.818Z,40.60
2023-05-28T15:37:57.039Z,40.50
2023-05-28T15:40:24.165Z,40.60
2023-05-28T15:42:52.083Z,40.40
2023-05-28T15:45:19.169Z,40.10
2023-05-28T15:47:47.700Z,39.70
2023-05-28T15:50:14.791Z,39.70
2023-05-28T15:52:42.068Z,39.40
2023-05-28T15:55:09.115Z,39.30
2023-05-28T15:57:36.150Z,39.50
2023-05-28T16:00:04.011Z,39.70
2023-05-28T16:02:32.632Z,39.50
2023-05-28T16:04:59.529Z,39.30
2023-05-28T16:07:28.591Z,39.00
2023-05-28T16:09:55.389Z,38.80
2023-05-28T16:12:25.077Z,38.70
2023-05-28T16:14:53.150Z,38.70
2023-05-28T16:17:20.192Z,38.70
2023-05-28T16:19:47.234Z,38.70
2023-05-28T16:22:14.294Z,38.50
2023-05-28T16:24:41.522Z,38.20
2023-05-28T16:27:10.965Z,38.00
2023-05-28T16:29:37.889Z,38.00
2023-05-28T16:32:04.956Z,37.90
2023-05-28T16:34:34.931Z,37.90
2023-05-28T16:37:02.111Z,36.40
2023-05-28T16:39:29.173Z,36.30
2023-05-28T16:41:56.219Z,34.60
2023-05-28T16:44:23.329Z,33.50
2023-05-28T16:46:53.250Z,33.30
2023-05-28T16:49:20.329Z,33.30
2023-05-28T16:51:48.273Z,33.20
2023-05-28T16:54:17.433Z,32.20
2023-05-28T16:56:44.986Z,30.70
2023-05-28T16:59:11.742Z,29.40
2023-05-28T17:01:38.538Z,28.40
2023-05-28T17:04:05.631Z,27.40
2023-05-28T17:06:32.596Z,26.90
2023-05-28T17:08:59.391Z,26.30
2023-05-28T17:11:26.614Z,25.80
2023-05-28T17:13:53.507Z,25.40
2023-05-28T17:16:20.427Z,25.20
2023-05-28T17:18:49.121Z,24.80
2023-05-28T17:21:15.988Z,24.60
2023-05-28T17:23:42.746Z,24.50
2023-05-28T17:26:09.485Z,24.30
2023-05-28T17:28:36.377Z,24.20
2023-05-28T17:31:03.167Z,24.00
2023-05-28T17:33:29.967Z,24.00
2023-05-28T17:35:56.808Z,23.90
2023-05-28T17:38:24.705Z,23.70
2023-05-28T17:40:51.515Z,21.10
2023-05-28T17:43:18.255Z,23.50
2023-05-28T17:45:47.595Z,23.40
2023-05-28T17:48:14.541Z,23.30
2023-05-28T17:50:41.486Z,23.20
2023-05-28T17:53:08.625Z,23.10
2023-05-28T17:55:36.275Z,22.90
2023-05-28T17:58:03.068Z,22.80
2023-05-28T18:00:31.579Z,22.70
2023-05-28T18:02:59.344Z,22.60
2023-05-28T18:05:28.250Z,22.50
2023-05-28T18:07:55.444Z,22.40
2023-05-28T18:10:22.208Z,22.30
2023-05-28T18:12:49.006Z,22.20
2023-05-28T18:15:15.968Z,19.30
2023-05-28T18:17:42.734Z,21.90
2023-05-28T18:20:10.576Z,21.80
2023-05-28T18:22:37.587Z,21.70
2023-05-28T18:25:04.559Z,21.60
2023-05-28T18:27:31.255Z,21.40
2023-05-28T18:29:58.085Z,21.30
2023-05-28T18:32:25.064Z,21.20
2023-05-28T18:34:51.745Z,21.00
2023-05-28T18:37:18.699Z,20.90
2023-05-28T18:39:47.630Z,20.80
2023-05-28T18:42:14.488Z,20.70
2023-05-28T18:44:43.041Z,20.50
2023-05-28T18:47:09.811Z,20.30
2023-05-28T18:49:37.466Z,20.30
2023-05-28T18:52:04.954Z,20.10
2023-05-28T18:54:31.737Z,20.00
2023-05-28T18:57:00.455Z,19.70
2023-05-28T18:59:27.253Z,22.40
2023-05-28T19:01:54.261Z,19.50
2023-05-28T19:04:21.084Z,19.30
2023-05-28T19:06:49.478Z,19.20
2023-05-28T19:09:16.895Z,19.00
2023-05-28T19:11:43.625Z,19.00
2023-05-28T19:14:10.784Z,18.70
2023-05-28T19:16:38.372Z,18.50
2023-05-28T19:19:05.357Z,18.30
2023-05-28T19:21:32.231Z,18.20
2023-05-28T19:23:58.917Z,18.10
2023-05-28T19:26:28.094Z,18.00
2023-05-28T19:28:54.912Z,17.90
2023-05-28T19:31:21.794Z,17.80
2023-05-28T19:33:48.767Z,17.70
2023-05-28T19:36:17.230Z,17.60
2023-05-28T19:38:44.526Z,17.50
2023-05-28T19:41:11.321Z,17.40
2023-05-28T19:43:38.085Z,17.40
2023-05-28T19:46:04.824Z,17.20
2023-05-28T19:48:33.763Z,17.20
2023-05-28T19:51:01.184Z,17.10
2023-05-28T19:53:28.001Z,17.00
2023-05-28T19:55:54.818Z,17.00
2023-05-28T19:58:22.320Z,16.90
2023-05-28T20:00:49.300Z,16.80
2023-05-28T20:03:17.035Z,16.70
2023-05-28T20:05:44.451Z,16.60
2023-05-28T20:08:11.938Z,16.50
2023-05-28T20:10:39.057Z,16.30
2023-05-28T20:13:05.849Z,16.20
2023-05-28T20:15:32.669Z,16.10
2023-05-28T20:17:59.530Z,16.10
2023-05-28T20:20:26.389Z,16.00
2023-05-28T20:22:53.149Z,15.90
2023-05-28T20:25:19.905Z,15.80
2023-05-28T20:27:46.647Z,15.80
2023-05-28T20:30:15.289Z,15.70
2023-05-28T20:32:42.178Z,15.70
2023-05-28T20:35:10.813Z,15.60
2023-05-28T20:37:40.270Z,15.50
2023-05-28T20:40:09.267Z,15.50
2023-05-28T20:42:36.043Z,15.40
2023-05-28T20:45:03.518Z,15.30
2023-05-28T20:47:31.861Z,15.30
2023-05-28T20:49:58.694Z,15.20
2023-05-28T20:52:25.527Z,15.00
2023-05-28T20:54:52.241Z,15.00
2023-05-28T20:57:19.176Z,14.90
2023-05-28T20:59:46.487Z,14.80
2023-05-28T21:02:13.279Z,14.80
2023-05-28T21:04:40.040Z,14.70
2023-05-28T21:07:06.859Z,14.60
2023-05-28T21:09:33.969Z,14.50
2023-05-28T21:12:02.325Z,14.50
2023-05-28T21:14:29.036Z,14.40
2023-05-28T21:16:55.934Z,14.40
2023-05-28T21:19:22.651Z,14.30
2023-05-28T21:21:49.419Z,14.20
2023-05-28T21:24:16.288Z,14.20
2023-05-28T21:26:43.102Z,14.10
2023-05-28T21:29:09.797Z,14.10
2023-05-28T21:31:36.647Z,14.00
2023-05-28T21:34:05.543Z,13.90
2023-05-28T21:36:32.283Z,13.80
2023-05-28T21:38:59.054Z,13.70
2023-05-28T21:41:25.740Z,13.60
2023-05-28T21:43:52.469Z,13.60
2023-05-28T21:46:19.268Z,13.60
2023-05-28T21:48:46.131Z,13.50
2023-05-28T21:51:13.026Z,13.50
2023-05-28T21:53:39.686Z,13.40
2023-05-28T21:56:07.055Z,13.40
2023-05-28T21:58:33.892Z,13.40
2023-05-28T22:01:01.195Z,13.40
2023-05-28T22:03:28.975Z,13.30
2023-05-28T22:05:55.790Z,13.30
2023-05-28T22:08:22.686Z,13.20
2023-05-28T22:10:49.441Z,13.20
2023-05-28T22:13:18.597Z,13.10
2023-05-28T22:15:45.910Z,13.10
2023-05-28T22:18:15.064Z,13.00
2023-05-28T22:20:43.736Z,12.90
2023-05-28T22:23:12.152Z,12.90
2023-05-28T22:25:38.940Z,12.80
2023-05-28T22:28:05.964Z,12.80
2023-05-28T22:30:32.832Z,12.70
2023-05-28T22:33:00.968Z,12.70
2023-05-28T22:35:28.706Z,12.60
2023-05-28T22:37:55.761Z,12.60
2023-05-28T22:40:22.632Z,12.50
2023-05-28T22:42:49.402Z,12.50
2023-05-28T22:45:17.203Z,12.40
2023-05-28T22:47:48.174Z,12.40
2023-05-28T22:50:15.522Z,12.40
2023-05-28T22:52:43.196Z,12.30
2023-05-28T22:55:11.791Z,12.30
2023-05-28T22:57:38.935Z,12.30
2023-05-28T23:00:10.502Z,12.20
2023-05-28T23:02:40.911Z,12.20
2023-05-28T23:05:08.158Z,13.30
2023-05-28T23:07:35.205Z,12.10
2023-05-28T23:10:02.649Z,12.00
2023-05-28T23:12:29.410Z,12.00
2023-05-28T23:14:56.108Z,12.00
2023-05-28T23:17:23.411Z,11.90
2023-05-28T23:19:50.490Z,11.90
2023-05-28T23:22:17.654Z,11.80
2023-05-28T23:24:44.332Z,11.70
2023-05-28T23:27:11.203Z,11.60
2023-05-28T23:29:38.234Z,11.60
2023-05-28T23:32:06.527Z,11.60
2023-05-28T23:34:33.754Z,11.60
2023-05-28T23:37:01.655Z,11.40
2023-05-28T23:39:28.972Z,11.40
2023-05-28T23:41:55.716Z,11.40
2023-05-28T23:44:22.642Z,11.40
2023-05-28T23:46:50.335Z,11.30
2023-05-28T23:49:18.392Z,11.30
2023-05-28T23:51:45.622Z,11.20
2023-05-28T23:54:12.674Z,11.20
2023-05-28T23:56:39.735Z,11.10
2023-05-28T23:59:07.154Z,11.10
